Time;durP1;ratioP1;P1;durP2;ratioP2;P2;SDS_P1;SDS_P2;PMS_P1;PMS_P2;Temp;Humidity;BMP_temperature;BMP_pressure;BME280_temperature;BME280_humidity;BME280_pressure;Samples;Min_cycle;Max_cycle;Signal;HPM_P1;HPM_P2
2022/07/05 00:02:22;;;;;;;0.15;0.15;;;15.10;99.90;;;;;;6210763;23;20373;-73
2022/07/05 00:04:50;;;;;;;0.10;0.10;;;15.10;99.90;;;;;;6210007;23;20025;-73
2022/07/05 00:07:19;;;;;;;0.10;0.10;;;15.10;99.90;;;;;;6183568;23;20020;-73
2022/07/05 00:09:47;;;;;;;0.20;0.20;;;15.00;99.90;;;;;;6209891;23;20044;-72
2022/07/05 00:12:15;;;;;;;0.20;0.20;;;15.10;99.90;;;;;;6209630;23;20016;-73
2022/07/05 00:14:42;;;;;;;0.20;0.20;;;15.10;99.90;;;;;;6209172;23;20027;-73
2022/07/05 00:17:08;;;;;;;0.10;0.10;;;15.10;99.90;;;;;;6211038;23;20104;-72
2022/07/05 00:19:34;;;;;;;0.10;0.10;;;15.00;99.90;;;;;;6208966;23;20104;-73
2022/07/05 00:22:00;;;;;;;0.20;0.20;;;15.10;99.90;;;;;;6210205;23;20051;-72
2022/07/05 00:24:26;;;;;;;0.20;0.20;;;15.00;99.90;;;;;;6209623;23;20020;-73
2022/07/05 00:26:52;;;;;;;0.20;0.20;;;15.00;99.90;;;;;;6182473;23;20459;-73
2022/07/05 00:29:17;;;;;;;0.15;0.15;;;15.00;99.90;;;;;;6208276;23;20020;-73
2022/07/05 00:31:43;;;;;;;0.10;0.10;;;15.00;99.90;;;;;;6210458;23;20032;-73
2022/07/05 00:34:09;;;;;;;0.10;0.10;;;15.00;99.90;;;;;;6209321;23;20114;-73
2022/07/05 00:36:34;;;;;;;0.10;0.10;;;14.90;99.90;;;;;;6210298;23;20020;-73
2022/07/05 00:39:00;;;;;;;0.20;0.20;;;14.90;99.90;;;;;;6209360;23;20020;-73
2022/07/05 00:41:26;;;;;;;0.10;0.10;;;15.00;99.90;;;;;;6184561;23;20012;-73
2022/07/05 00:44:01;;;;;;;0.20;0.20;;;14.90;99.90;;;;;;6210168;23;20030;-74
2022/07/05 00:46:27;;;;;;;0.20;0.20;;;14.90;99.90;;;;;;6209472;23;20497;-73
2022/07/05 00:48:54;;;;;;;0.10;0.10;;;14.90;99.90;;;;;;6182251;23;20017;-73
2022/07/05 00:51:21;;;;;;;0.10;0.10;;;14.80;99.90;;;;;;6210284;23;20545;-73
2022/07/05 00:53:48;;;;;;;0.20;0.20;;;14.90;99.90;;;;;;6209017;23;20052;-74
2022/07/05 00:56:14;;;;;;;0.10;0.10;;;14.90;99.90;;;;;;6209873;23;20116;-74
2022/07/05 00:58:40;;;;;;;0.15;0.15;;;14.80;99.90;;;;;;6210111;23;20012;-74
2022/07/05 01:01:08;;;;;;;0.10;0.10;;;14.70;99.90;;;;;;6209519;23;20507;-74
2022/07/05 01:03:34;;;;;;;0.20;0.20;;;14.90;99.90;;;;;;6210434;23;20429;-74
2022/07/05 01:06:06;;;;;;;0.10;0.10;;;14.80;99.90;;;;;;6211444;23;20030;-73
2022/07/05 01:08:35;;;;;;;0.20;0.20;;;14.70;99.90;;;;;;6208858;23;20048;-73
2022/07/05 01:11:01;;;;;;;0.17;0.17;;;14.70;99.90;;;;;;6210544;23;20128;-73
2022/07/05 01:13:27;;;;;;;0.20;0.10;;;14.60;99.90;;;;;;6209232;23;20099;-73
2022/07/05 01:15:54;;;;;;;0.10;0.10;;;14.60;99.90;;;;;;6209364;23;20021;-73
2022/07/05 01:18:21;;;;;;;0.20;0.20;;;14.50;99.90;;;;;;6183028;23;20025;-74
2022/07/05 01:20:48;;;;;;;0.10;0.10;;;14.40;99.90;;;;;;6209909;23;20070;-73
2022/07/05 01:23:14;;;;;;;0.10;0.10;;;14.50;99.90;;;;;;6207834;23;20361;-73
2022/07/05 01:25:41;;;;;;;0.10;0.10;;;14.40;99.90;;;;;;6210827;23;20031;-73
2022/07/05 01:28:06;;;;;;;0.10;0.10;;;14.40;99.90;;;;;;6180654;23;20020;-73
2022/07/05 01:30:34;;;;;;;0.10;0.10;;;14.50;99.90;;;;;;6209196;23;20023;-73
2022/07/05 01:33:00;;;;;;;0.10;0.10;;;14.40;99.90;;;;;;6209957;23;20016;-73
2022/07/05 01:35:25;;;;;;;0.20;0.20;;;14.40;99.90;;;;;;6208898;23;20771;-73
2022/07/05 01:37:52;;;;;;;0.15;0.15;;;14.40;99.90;;;;;;6209695;23;20456;-73
2022/07/05 01:40:18;;;;;;;0.20;0.20;;;14.30;99.90;;;;;;6209620;23;20417;-73
2022/07/05 01:42:45;;;;;;;0.10;0.10;;;14.30;99.90;;;;;;6208541;23;20084;-73
2022/07/05 01:45:12;;;;;;;0.20;0.20;;;14.30;99.90;;;;;;6181576;23;20052;-73
2022/07/05 01:47:44;;;;;;;0.20;0.20;;;14.20;99.90;;;;;;6209857;23;20091;-73
2022/07/05 01:50:10;;;;;;;0.13;0.13;;;14.20;99.90;;;;;;6208258;23;20021;-73
2022/07/05 01:52:39;;;;;;;0.10;0.10;;;14.20;99.90;;;;;;6208918;23;20016;-73
2022/07/05 01:55:05;;;;;;;0.20;0.20;;;14.20;99.90;;;;;;6181157;23;20078;-73
2022/07/05 01:57:31;;;;;;;0.20;0.20;;;14.20;99.90;;;;;;6208424;23;20099;-73
2022/07/05 01:59:57;;;;;;;0.10;0.10;;;14.10;99.90;;;;;;6208648;23;20720;-73
2022/07/05 02:02:22;;;;;;;0.20;0.20;;;14.20;99.90;;;;;;6209787;23;20020;-73
2022/07/05 02:04:48;;;;;;;0.20;0.20;;;14.20;99.90;;;;;;6181647;23;20017;-74
2022/07/05 02:07:14;;;;;;;0.20;0.20;;;14.10;99.90;;;;;;6181380;23;20020;-74
2022/07/05 02:09:39;;;;;;;0.10;0.10;;;14.10;99.90;;;;;;6209620;23;20009;-73
2022/07/05 02:12:06;;;;;;;0.20;0.20;;;14.00;99.90;;;;;;6208601;23;20028;-73
2022/07/05 02:14:31;;;;;;;0.20;0.20;;;14.00;99.90;;;;;;6208415;23;20017;-73
2022/07/05 02:16:57;;;;;;;0.10;0.10;;;13.90;99.90;;;;;;6209893;23;20020;-73
2022/07/05 02:19:23;;;;;;;0.10;0.10;;;13.90;99.90;;;;;;6208065;23;20028;-73
2022/07/05 02:21:48;;;;;;;0.13;0.13;;;13.90;99.90;;;;;;6182546;23;20035;-73
2022/07/05 02:24:14;;;;;;;0.10;0.10;;;13.90;99.90;;;;;;6208361;23;20103;-73
2022/07/05 02:26:40;;;;;;;0.10;0.10;;;13.90;99.90;;;;;;6209167;23;20088;-73
2022/07/05 02:29:06;;;;;;;0.20;0.20;;;13.90;99.90;;;;;;6208299;23;20020;-73
2022/07/05 02:31:32;;;;;;;0.20;0.20;;;13.90;99.90;;;;;;6208108;23;20310;-73
2022/07/05 02:33:58;;;;;;;0.20;0.20;;;13.90;99.90;;;;;;6207626;23;20021;-73
2022/07/05 02:36:24;;;;;;;0.10;0.10;;;13.80;99.90;;;;;;6209798;23;20024;-73
2022/07/05 02:38:49;;;;;;;0.20;0.20;;;13.90;99.90;;;;;;6208295;23;20510;-72
2022/07/05 02:41:15;;;;;;;0.20;0.20;;;13.80;99.90;;;;;;6211852;23;20020;-73
2022/07/05 02:43:41;;;;;;;0.20;0.20;;;13.80;99.90;;;;;;6210774;23;20339;-73
2022/07/05 02:46:08;;;;;;;0.10;0.10;;;13.70;99.90;;;;;;6184859;23;20016;-73
2022/07/05 02:48:35;;;;;;;0.20;0.20;;;13.70;99.90;;;;;;6183736;23;20021;-73
2022/07/05 02:51:02;;;;;;;0.20;0.20;;;13.70;99.90;;;;;;6212473;23;20084;-73
2022/07/05 02:53:28;;;;;;;0.20;0.20;;;13.70;99.90;;;;;;6209347;23;20016;-73
2022/07/05 02:55:54;;;;;;;0.20;0.20;;;13.70;99.90;;;;;;6211574;23;20019;-74
2022/07/05 02:58:20;;;;;;;0.20;0.20;;;13.70;99.90;;;;;;6210857;23;20020;-74
2022/07/05 03:00:47;;;;;;;0.10;0.10;;;13.70;99.90;;;;;;6184496;23;20031;-74
2022/07/05 03:03:13;;;;;;;0.10;0.10;;;13.70;99.90;;;;;;6209404;23;20020;-74
2022/07/05 03:05:39;;;;;;;0.20;0.20;;;13.70;99.90;;;;;;6184027;23;20031;-74
2022/07/05 03:08:06;;;;;;;0.10;0.10;;;13.70;99.90;;;;;;6211076;23;20079;-74
2022/07/05 03:10:32;;;;;;;0.10;0.10;;;13.70;99.90;;;;;;6212238;23;20040;-73
2022/07/05 03:12:58;;;;;;;0.10;0.10;;;13.70;99.90;;;;;;6211181;23;20048;-73
2022/07/05 03:15:23;;;;;;;0.20;0.20;;;13.70;99.90;;;;;;6210695;23;20040;-74
2022/07/05 03:17:49;;;;;;;0.10;0.10;;;13.70;99.90;;;;;;6211456;23;20032;-73
2022/07/05 03:20:15;;;;;;;0.20;0.20;;;13.60;99.90;;;;;;6211238;23;20106;-73
2022/07/05 03:22:40;;;;;;;0.17;0.17;;;13.60;99.90;;;;;;6182731;23;20434;-73
2022/07/05 03:25:06;;;;;;;0.10;0.10;;;13.70;99.90;;;;;;6210599;23;20027;-73
2022/07/05 03:27:32;;;;;;;0.20;0.20;;;13.60;99.90;;;;;;6210509;23;20040;-73
2022/07/05 03:29:57;;;;;;;0.10;0.10;;;13.60;99.90;;;;;;6182228;23;20017;-73
2022/07/05 03:32:23;;;;;;;0.10;0.10;;;13.60;99.90;;;;;;6184204;23;20033;-73
2022/07/05 03:34:49;;;;;;;0.20;0.20;;;13.50;99.90;;;;;;6209912;23;20025;-74
2022/07/05 03:37:15;;;;;;;0.10;0.10;;;13.50;99.90;;;;;;6210606;23;20514;-74
2022/07/05 03:39:40;;;;;;;0.15;0.15;;;13.50;99.90;;;;;;6210318;23;20021;-74
2022/07/05 03:42:06;;;;;;;0.17;0.17;;;13.50;99.90;;;;;;6183727;23;20020;-73
2022/07/05 03:44:32;;;;;;;0.20;0.20;;;13.50;99.90;;;;;;6207722;23;20163;-74
2022/07/05 03:46:59;;;;;;;0.10;0.10;;;13.40;99.90;;;;;;6182955;23;20410;-73
2022/07/05 03:49:25;;;;;;;0.10;0.10;;;13.50;99.90;;;;;;6208637;23;20020;-73
2022/07/05 03:51:51;;;;;;;0.20;0.20;;;13.50;99.90;;;;;;6210202;23;20023;-73
2022/07/05 03:54:16;;;;;;;0.10;0.10;;;13.50;99.90;;;;;;6209643;23;20013;-73
2022/07/05 03:56:42;;;;;;;0.10;0.10;;;13.40;99.90;;;;;;6182881;23;20012;-73
2022/07/05 03:59:08;;;;;;;0.15;0.15;;;13.50;99.90;;;;;;6183038;23;20021;-73
2022/07/05 04:01:33;;;;;;;0.10;0.10;;;13.50;99.90;;;;;;6210174;23;20518;-74
2022/07/05 04:03:59;;;;;;;0.13;0.13;;;13.50;99.90;;;;;;6209029;23;20109;-73
2022/07/05 04:06:24;;;;;;;0.15;0.15;;;13.50;99.90;;;;;;6210264;23;20029;-74
2022/07/05 04:08:51;;;;;;;0.13;0.13;;;13.50;99.90;;;;;;6209496;23;20326;-73
2022/07/05 04:11:16;;;;;;;0.20;0.20;;;13.50;99.90;;;;;;6208636;23;20055;-74
2022/07/05 04:13:42;;;;;;;0.10;0.10;;;13.60;99.90;;;;;;6208036;23;20021;-74
2022/07/05 04:16:09;;;;;;;0.17;0.17;;;13.60;99.90;;;;;;6209644;23;20096;-73
2022/07/05 04:18:35;;;;;;;0.20;0.20;;;13.60;99.90;;;;;;6210078;23;20047;-74
2022/07/05 04:21:01;;;;;;;0.10;0.10;;;13.70;99.90;;;;;;6210099;23;20364;-74
2022/07/05 04:23:27;;;;;;;0.20;0.20;;;13.70;99.90;;;;;;6181001;23;20046;-74
2022/07/05 04:25:53;;;;;;;0.10;0.10;;;13.70;99.90;;;;;;6184425;23;20433;-73
2022/07/05 04:28:19;;;;;;;0.20;0.20;;;13.70;99.90;;;;;;6182155;23;20016;-74
2022/07/05 04:30:44;;;;;;;0.17;0.17;;;13.70;99.90;;;;;;6182202;23;20031;-74
2022/07/05 04:33:10;;;;;;;0.20;0.20;;;13.70;99.90;;;;;;6209520;23;20029;-74
2022/07/05 04:35:36;;;;;;;0.10;0.10;;;13.80;99.90;;;;;;6183436;23;20352;-74
2022/07/05 04:38:01;;;;;;;0.10;0.10;;;13.80;99.90;;;;;;6208625;23;20051;-74
2022/07/05 04:40:27;;;;;;;0.20;0.20;;;13.80;99.90;;;;;;6209230;23;20019;-74
2022/07/05 04:42:53;;;;;;;0.20;0.20;;;13.90;99.90;;;;;;6183383;23;20020;-74
2022/07/05 04:45:18;;;;;;;0.10;0.10;;;13.90;99.90;;;;;;6182540;23;20078;-74
2022/07/05 04:47:44;;;;;;;0.20;0.20;;;13.90;99.90;;;;;;6182287;23;20031;-74
2022/07/05 04:50:10;;;;;;;0.10;0.10;;;14.00;99.90;;;;;;6207869;23;20337;-74
2022/07/05 04:52:35;;;;;;;0.13;0.13;;;14.10;99.90;;;;;;6208568;23;20402;-74
2022/07/05 04:55:02;;;;;;;0.20;0.20;;;14.20;99.90;;;;;;6208481;23;20025;-74
2022/07/05 04:57:37;;;;;;;0.20;0.20;;;14.20;99.90;;;;;;6182231;23;20136;-74
2022/07/05 05:00:03;;;;;;;0.10;0.10;;;14.30;99.90;;;;;;6208346;23;20286;-73
2022/07/05 05:02:29;;;;;;;0.15;0.15;;;14.40;99.90;;;;;;6208945;23;20515;-74
2022/07/05 05:04:54;;;;;;;0.10;0.10;;;14.40;99.90;;;;;;6208103;23;20024;-75
2022/07/05 05:07:20;;;;;;;0.20;0.20;;;14.50;99.90;;;;;;6208739;23;20024;-74
2022/07/05 05:09:45;;;;;;;0.20;0.20;;;14.60;99.90;;;;;;6182500;23;20339;-74
2022/07/05 05:12:11;;;;;;;0.10;0.10;;;14.70;99.90;;;;;;6209254;23;20020;-73
2022/07/05 05:14:37;;;;;;;0.17;0.17;;;14.80;99.90;;;;;;6179860;23;20032;-74
2022/07/05 05:17:02;;;;;;;0.10;0.10;;;14.70;99.90;;;;;;6210373;23;20012;-74
2022/07/05 05:19:28;;;;;;;0.10;0.10;;;14.80;99.90;;;;;;6180793;23;20061;-74
2022/07/05 05:21:54;;;;;;;0.20;0.20;;;14.90;99.90;;;;;;6206897;23;20440;-74
2022/07/05 05:24:19;;;;;;;0.20;0.20;;;14.80;99.90;;;;;;6208599;23;20027;-74
2022/07/05 05:26:45;;;;;;;0.10;0.10;;;15.00;99.90;;;;;;6210331;23;20376;-74
2022/07/05 05:29:11;;;;;;;0.10;0.10;;;15.00;99.90;;;;;;6180505;23;20020;-74
2022/07/05 05:31:36;;;;;;;0.10;0.10;;;15.10;99.90;;;;;;6182330;23;20047;-74
2022/07/05 05:34:02;;;;;;;0.10;0.10;;;15.10;99.90;;;;;;6183123;23;20457;-74
2022/07/05 05:36:27;;;;;;;0.20;0.20;;;15.20;99.90;;;;;;6209832;23;20067;-74
2022/07/05 05:38:53;;;;;;;0.10;0.10;;;15.20;99.90;;;;;;6183329;23;20029;-73
2022/07/05 05:41:19;;;;;;;0.20;0.20;;;15.30;99.90;;;;;;6208390;23;20433;-74
2022/07/05 05:43:44;;;;;;;0.20;0.20;;;15.30;99.90;;;;;;6208153;23;20017;-74
2022/07/05 05:46:10;;;;;;;0.20;0.20;;;15.30;99.90;;;;;;6209063;23;20118;-74
2022/07/05 05:48:35;;;;;;;0.10;0.10;;;15.40;99.90;;;;;;6207613;23;20111;-74
2022/07/05 05:51:01;;;;;;;0.20;0.20;;;15.40;99.90;;;;;;6210004;23;20317;-74
2022/07/05 05:53:27;;;;;;;0.15;0.15;;;15.50;99.90;;;;;;6208957;23;20016;-75
2022/07/05 05:55:52;;;;;;;0.10;0.10;;;15.50;99.90;;;;;;6208433;23;20099;-74
2022/07/05 05:58:26;;;;;;;0.10;0.10;;;15.50;99.90;;;;;;6206871;23;20051;-76
2022/07/05 06:00:52;;;;;;;0.10;0.10;;;15.60;99.90;;;;;;6181913;23;20572;-76
2022/07/05 06:03:19;;;;;;;0.13;0.13;;;15.70;99.90;;;;;;6208277;23;20013;-76
2022/07/05 06:05:45;;;;;;;0.20;0.20;;;15.70;99.90;;;;;;6181948;23;20031;-77
2022/07/05 06:08:11;;;;;;;0.20;0.20;;;15.80;99.90;;;;;;6209844;23;20017;-77
2022/07/05 06:10:37;;;;;;;0.10;0.10;;;15.90;99.90;;;;;;6208653;23;20024;-76
2022/07/05 06:13:06;;;;;;;0.20;0.20;;;15.90;99.90;;;;;;6209109;23;20017;-75
2022/07/05 06:15:31;;;;;;;0.10;0.10;;;16.00;99.90;;;;;;6209255;23;20067;-77
2022/07/05 06:17:58;;;;;;;0.10;0.10;;;16.20;99.90;;;;;;6207613;23;20013;-76
2022/07/05 06:20:25;;;;;;;0.17;0.17;;;16.10;99.90;;;;;;6208222;23;20088;-76
2022/07/05 06:22:52;;;;;;;0.10;0.10;;;16.20;99.90;;;;;;6208298;23;20013;-75
2022/07/05 06:25:19;;;;;;;0.10;0.10;;;16.30;99.90;;;;;;6208071;23;20027;-75
2022/07/05 06:27:46;;;;;;;0.10;0.10;;;16.30;99.90;;;;;;6207571;23;20016;-75
2022/07/05 06:30:17;;;;;;;0.10;0.10;;;16.40;99.90;;;;;;6182648;23;20020;-75
2022/07/05 06:32:44;;;;;;;0.15;0.15;;;16.40;99.90;;;;;;6207009;23;20048;-76
2022/07/05 06:35:10;;;;;;;0.10;0.10;;;16.50;99.90;;;;;;6208996;23;20019;-76
2022/07/05 06:37:52;;;;;;;0.20;0.20;;;16.60;99.90;;;;;;6207783;23;20507;-75
2022/07/05 06:40:24;;;;;;;0.20;0.20;;;16.60;99.90;;;;;;6183275;23;20084;-76
2022/07/05 06:42:55;;;;;;;0.15;0.15;;;16.70;99.90;;;;;;6208470;23;20024;-75
2022/07/05 06:45:21;;;;;;;0.10;0.10;;;16.70;99.90;;;;;;6208548;23;20070;-76
2022/07/05 06:47:57;;;;;;;0.10;0.10;;;16.80;99.90;;;;;;6206850;23;20095;-75
2022/07/05 06:50:23;;;;;;;0.10;0.10;;;16.80;99.90;;;;;;6209773;23;20511;-76
2022/07/05 06:52:49;;;;;;;0.10;0.10;;;16.90;99.90;;;;;;6207727;23;20025;-75
2022/07/05 06:55:14;;;;;;;0.10;0.10;;;16.90;99.90;;;;;;6182301;23;20035;-75
2022/07/05 06:57:40;;;;;;;0.13;0.13;;;16.90;99.90;;;;;;6209121;23;20364;-75
2022/07/05 07:00:06;;;;;;;0.10;0.10;;;17.00;99.90;;;;;;6209329;23;20024;-76
2022/07/05 07:02:32;;;;;;;0.20;0.20;;;17.00;99.90;;;;;;6181390;23;20134;-75
2022/07/05 07:04:57;;;;;;;0.10;0.10;;;17.10;99.90;;;;;;6210020;23;20088;-74
2022/07/05 07:10:07;;;;;;;0.13;0.13;;;17.10;99.90;;;;;;6182968;23;20021;-75
2022/07/05 07:12:33;;;;;;;0.13;0.13;;;17.20;99.90;;;;;;6210148;23;20348;-74
2022/07/05 07:14:59;;;;;;;0.10;0.10;;;17.20;99.90;;;;;;6208391;23;20009;-75
2022/07/05 07:17:24;;;;;;;0.10;0.10;;;17.30;99.90;;;;;;6181669;23;20032;-76
2022/07/05 07:19:50;;;;;;;0.10;0.10;;;17.40;99.90;;;;;;6181841;23;20092;-75
2022/07/05 07:22:16;;;;;;;0.10;0.10;;;17.30;99.90;;;;;;6209212;23;20736;-75
2022/07/05 07:24:41;;;;;;;0.20;0.20;;;17.40;99.90;;;;;;6208205;23;20016;-75
2022/07/05 07:27:08;;;;;;;0.10;0.10;;;17.40;99.90;;;;;;6209982;23;20453;-74
2022/07/05 07:29:35;;;;;;;0.10;0.10;;;17.50;99.90;;;;;;6181601;23;20123;-75
2022/07/05 07:32:02;;;;;;;0.10;0.10;;;17.50;99.90;;;;;;6182698;23;20031;-76
2022/07/05 07:34:29;;;;;;;0.15;0.15;;;17.60;99.90;;;;;;6183424;23;20024;-77
2022/07/05 07:36:59;;;;;;;0.10;0.10;;;17.70;99.90;;;;;;6211632;23;20032;-76
2022/07/05 07:39:26;;;;;;;0.10;0.10;;;17.70;99.90;;;;;;6182117;23;20111;-76
2022/07/05 07:41:52;;;;;;;0.20;0.20;;;17.70;99.90;;;;;;6183349;23;20341;-76
2022/07/05 07:44:18;;;;;;;0.10;0.10;;;17.80;99.90;;;;;;6209311;23;20523;-76
2022/07/05 07:46:44;;;;;;;0.13;0.13;;;17.80;99.90;;;;;;6183847;23;20100;-75
2022/07/05 07:49:10;;;;;;;0.10;0.10;;;17.80;99.90;;;;;;6181220;23;20480;-77
2022/07/05 07:51:36;;;;;;;0.10;0.10;;;17.80;99.90;;;;;;6182333;23;20063;-75
2022/07/05 07:54:02;;;;;;;0.10;0.10;;;17.90;99.90;;;;;;6180511;23;20025;-74
2022/07/05 07:56:28;;;;;;;0.20;0.20;;;17.90;99.90;;;;;;6179740;23;20016;-73
2022/07/05 07:58:54;;;;;;;0.10;0.10;;;18.00;99.90;;;;;;6181949;23;20467;-76
2022/07/05 08:01:19;;;;;;;0.13;0.13;;;18.00;99.90;;;;;;6211181;23;20013;-75
2022/07/05 08:03:45;;;;;;;0.20;0.20;;;18.00;99.90;;;;;;6209949;23;20423;-75
2022/07/05 08:06:12;;;;;;;0.20;0.20;;;17.90;99.90;;;;;;6211157;23;20123;-76
2022/07/05 08:08:38;;;;;;;0.20;0.20;;;18.00;99.90;;;;;;6183771;23;20012;-76
2022/07/05 08:11:05;;;;;;;0.20;0.20;;;18.00;99.90;;;;;;6210901;23;20425;-77
2022/07/05 08:13:31;;;;;;;0.20;0.20;;;18.10;99.90;;;;;;6183351;23;20099;-77
2022/07/05 08:15:57;;;;;;;0.10;0.10;;;18.10;99.90;;;;;;6210367;23;20110;-77
2022/07/05 08:23:52;;;;;;;0.10;0.10;;;18.10;99.90;;;;;;6182448;23;20028;-77
2022/07/05 08:26:17;;;;;;;0.20;0.20;;;18.10;99.90;;;;;;6210607;23;20510;-76
2022/07/05 08:28:43;;;;;;;0.10;0.10;;;18.10;99.90;;;;;;6183096;23;20028;-77
2022/07/05 08:31:09;;;;;;;0.10;0.10;;;18.00;99.90;;;;;;6182585;23;20043;-77
2022/07/05 08:33:35;;;;;;;0.15;0.15;;;18.10;99.90;;;;;;6210956;23;20012;-77
2022/07/05 08:36:00;;;;;;;0.10;0.10;;;18.20;99.90;;;;;;6184056;23;20410;-77
2022/07/05 08:38:26;;;;;;;0.20;0.20;;;18.20;99.90;;;;;;6181071;23;20013;-76
2022/07/05 08:40:55;;;;;;;0.20;0.20;;;18.30;99.90;;;;;;6198622;23;20051;-77
2022/07/05 08:43:22;;;;;;;0.10;0.10;;;18.30;99.90;;;;;;6209652;23;20024;-76
2022/07/05 08:45:49;;;;;;;0.10;0.10;;;18.50;99.90;;;;;;6183335;23;20344;-77
2022/07/05 08:48:17;;;;;;;0.20;0.20;;;18.50;99.90;;;;;;6210273;23;20440;-76
2022/07/05 08:50:43;;;;;;;0.10;0.10;;;18.60;99.90;;;;;;6210694;23;20016;-76
2022/07/05 08:53:09;;;;;;;0.13;0.13;;;18.60;99.90;;;;;;6182059;23;20016;-77
2022/07/05 08:55:35;;;;;;;0.20;0.20;;;18.70;99.90;;;;;;6183821;23;20019;-77
2022/07/05 08:58:02;;;;;;;0.20;0.20;;;18.70;99.90;;;;;;6209986;23;20013;-78
2022/07/05 09:00:28;;;;;;;0.20;0.20;;;18.80;99.90;;;;;;6182744;23;20046;-75
2022/07/05 09:02:56;;;;;;;0.10;0.10;;;18.90;99.90;;;;;;6210933;23;20103;-76
2022/07/05 09:05:25;;;;;;;0.10;0.10;;;18.90;99.90;;;;;;6209422;23;20012;-76
2022/07/05 09:07:57;;;;;;;0.10;0.10;;;18.90;99.90;;;;;;6182686;23;20159;-77
2022/07/05 09:10:26;;;;;;;0.10;0.10;;;18.90;99.90;;;;;;6210480;23;20373;-76
2022/07/05 09:12:51;;;;;;;0.20;0.20;;;19.00;99.90;;;;;;6182077;23;20020;-76
2022/07/05 09:15:17;;;;;;;0.10;0.10;;;19.10;99.90;;;;;;6209589;23;20024;-76
2022/07/05 09:17:46;;;;;;;0.10;0.10;;;19.20;99.90;;;;;;6209867;23;20023;-77
2022/07/05 09:20:16;;;;;;;0.17;0.17;;;19.20;99.90;;;;;;6181597;23;20481;-76
2022/07/05 09:22:53;;;;;;;0.20;0.20;;;19.30;99.90;;;;;;6209750;23;20021;-76
2022/07/05 09:25:23;;;;;;;0.20;0.20;;;19.30;99.90;;;;;;6211397;23;20092;-78
2022/07/05 09:27:55;;;;;;;0.20;0.20;;;19.20;99.90;;;;;;6181963;23;20493;-76
2022/07/05 09:30:34;;;;;;;0.20;0.20;;;19.20;99.90;;;;;;6210828;23;20048;-77
2022/07/05 09:33:04;;;;;;;0.10;0.10;;;19.30;99.90;;;;;;6184325;23;20028;-77
2022/07/05 09:35:31;;;;;;;0.20;0.20;;;19.20;99.90;;;;;;6182977;23;20036;-77
2022/07/05 09:37:57;;;;;;;0.20;0.20;;;19.30;99.90;;;;;;6209982;23;20020;-77
2022/07/05 09:40:22;;;;;;;0.17;0.17;;;19.30;99.90;;;;;;6210078;23;20327;-78
2022/07/05 09:42:48;;;;;;;0.20;0.20;;;19.30;99.90;;;;;;6209645;23;20062;-77
2022/07/05 09:45:24;;;;;;;0.20;0.20;;;19.30;99.90;;;;;;6183677;23;20031;-78
2022/07/05 09:47:50;;;;;;;0.10;0.10;;;19.30;99.90;;;;;;6181900;23;20292;-77
2022/07/05 09:50:33;;;;;;;0.20;0.20;;;19.30;99.90;;;;;;6210358;23;20050;-77
2022/07/05 09:52:59;;;;;;;0.10;0.10;;;19.10;99.90;;;;;;6210429;23;20059;-77
2022/07/05 09:55:25;;;;;;;0.20;0.20;;;19.10;99.90;;;;;;6182927;23;20387;-78
2022/07/05 09:57:51;;;;;;;0.10;0.10;;;19.10;99.90;;;;;;6182428;23;20016;-78
2022/07/05 10:00:18;;;;;;;0.15;0.15;;;19.10;99.90;;;;;;6183103;23;20021;-77
2022/07/05 10:02:45;;;;;;;0.20;0.20;;;19.10;99.90;;;;;;6209014;23;20021;-77
2022/07/05 10:05:18;;;;;;;0.10;0.10;;;19.10;99.90;;;;;;6210202;23;20058;-78
2022/07/05 10:07:47;;;;;;;0.20;0.20;;;19.10;99.90;;;;;;6183463;23;20271;-78
2022/07/05 10:10:18;;;;;;;0.20;0.20;;;19.20;99.90;;;;;;6182586;23;20349;-78
2022/07/05 10:12:46;;;;;;;0.10;0.10;;;19.20;99.90;;;;;;6181869;23;20379;-77
2022/07/05 10:15:14;;;;;;;0.10;0.10;;;19.20;99.90;;;;;;6209116;23;20071;-79
2022/07/05 10:17:52;;;;;;;0.10;0.10;;;19.20;99.90;;;;;;6207809;23;20501;-78
2022/07/05 10:20:32;;;;;;;0.20;0.20;;;19.30;99.90;;;;;;6180532;23;20470;-78
2022/07/05 10:22:58;;;;;;;0.20;0.20;;;19.40;99.90;;;;;;6205996;23;20017;-78
2022/07/05 10:25:29;;;;;;;0.10;0.10;;;19.40;99.90;;;;;;6207155;23;20020;-77
2022/07/05 10:27:58;;;;;;;0.20;0.20;;;19.50;99.90;;;;;;6205689;23;20016;-77
2022/07/05 10:30:24;;;;;;;0.20;0.20;;;19.60;99.90;;;;;;6206740;23;20069;-77
2022/07/05 10:32:50;;;;;;;0.10;0.10;;;19.60;99.90;;;;;;6210395;23;20384;-77
2022/07/05 10:35:17;;;;;;;0.20;0.20;;;19.50;99.90;;;;;;6210217;23;20107;-77
2022/07/05 10:37:44;;;;;;;0.20;0.20;;;19.50;99.90;;;;;;6178940;23;20024;-78
2022/07/05 10:40:11;;;;;;;0.20;0.20;;;19.40;99.90;;;;;;6179310;23;20103;-77
2022/07/05 10:42:41;;;;;;;0.13;0.13;;;19.40;99.90;;;;;;6205691;23;20052;-78
2022/07/05 10:45:26;;;;;;;0.20;0.20;;;19.40;99.90;;;;;;6203197;23;20017;-77
2022/07/05 10:48:13;;;;;;;0.10;0.10;;;19.40;99.90;;;;;;6206533;23;20737;-77
2022/07/05 10:50:53;;;;;;;0.20;0.20;;;19.50;99.90;;;;;;6205599;23;20021;-77
2022/07/05 10:53:21;;;;;;;0.10;0.10;;;19.60;99.90;;;;;;6181394;23;20032;-77
2022/07/05 10:55:59;;;;;;;0.10;0.10;;;19.60;99.90;;;;;;6182756;23;20031;-76
2022/07/05 10:58:30;;;;;;;0.20;0.20;;;19.60;99.90;;;;;;6208563;23;20366;-76
2022/07/05 11:01:18;;;;;;;0.20;0.20;;;19.60;99.90;;;;;;6210266;23;20027;-75
2022/07/05 11:04:00;;;;;;;0.20;0.20;;;19.60;99.90;;;;;;6211565;23;20118;-76
2022/07/05 11:06:38;;;;;;;0.10;0.10;;;19.50;99.90;;;;;;6184342;23;20366;-77
2022/07/05 11:09:03;;;;;;;0.20;0.20;;;19.50;99.90;;;;;;6212197;23;20051;-76
2022/07/05 11:11:36;;;;;;;0.20;0.20;;;19.40;99.90;;;;;;6211359;23;20860;-76
2022/07/05 11:14:04;;;;;;;0.20;0.20;;;19.50;99.90;;;;;;6183219;23;20115;-76
2022/07/05 11:16:34;;;;;;;0.20;0.20;;;19.60;99.90;;;;;;6184898;23;20487;-77
2022/07/05 11:19:10;;;;;;;0.20;0.20;;;19.70;99.90;;;;;;6210535;23;20401;-77
2022/07/05 11:21:57;;;;;;;0.20;0.20;;;19.80;99.90;;;;;;6211448;23;20044;-76
2022/07/05 11:24:28;;;;;;;0.10;0.10;;;19.80;99.90;;;;;;6183603;23;20132;-77
2022/07/05 11:26:58;;;;;;;0.10;0.10;;;19.90;99.90;;;;;;6210986;23;20063;-77
2022/07/05 11:29:43;;;;;;;0.20;0.20;;;20.00;99.90;;;;;;6209586;23;20448;-77
2022/07/05 11:32:21;;;;;;;0.20;0.20;;;20.00;99.90;;;;;;6212127;23;20031;-77
2022/07/05 11:34:51;;;;;;;0.20;0.20;;;20.10;99.90;;;;;;6210609;23;20432;-77
2022/07/05 11:37:24;;;;;;;0.20;0.20;;;20.10;99.90;;;;;;6183487;23;20027;-77
2022/07/05 11:40:10;;;;;;;0.20;0.20;;;20.10;99.90;;;;;;6182062;23;20033;-77
2022/07/05 11:42:39;;;;;;;0.20;0.20;;;20.10;99.90;;;;;;6181848;23;20017;-77
2022/07/05 11:45:08;;;;;;;0.20;0.20;;;20.10;99.90;;;;;;6207924;23;20192;-76
2022/07/05 11:47:35;;;;;;;0.20;0.20;;;20.00;99.80;;;;;;6207114;23;20021;-75
2022/07/05 11:50:01;;;;;;;0.20;0.20;;;19.80;99.90;;;;;;6181255;23;20017;-76
2022/07/05 11:52:27;;;;;;;0.20;0.20;;;19.70;99.90;;;;;;6180328;23;20501;-76
2022/07/05 11:54:53;;;;;;;0.20;0.20;;;19.60;99.90;;;;;;6169943;23;20154;-76
2022/07/05 11:57:19;;;;;;;0.20;0.20;;;19.40;99.90;;;;;;6211141;23;20517;-75
2022/07/05 11:59:46;;;;;;;0.20;0.20;;;19.30;99.90;;;;;;6208736;23;20044;-76
2022/07/05 12:02:11;;;;;;;0.10;0.10;;;19.30;99.90;;;;;;6206313;23;20024;-76
2022/07/05 12:04:37;;;;;;;0.20;0.20;;;19.20;99.90;;;;;;6182321;23;20031;-76
2022/07/05 12:07:03;;;;;;;0.20;0.20;;;19.10;99.90;;;;;;6181809;23;20128;-76
2022/07/05 12:15:08;;;;;;;0.17;0.17;;;18.90;99.90;;;;;;6209916;23;20024;-77
2022/07/05 12:17:34;;;;;;;0.20;0.20;;;18.80;99.90;;;;;;6183965;23;20180;-77
2022/07/05 12:20:00;;;;;;;0.20;0.20;;;18.70;99.90;;;;;;6210613;23;20134;-76
2022/07/05 12:22:33;;;;;;;0.20;0.20;;;18.70;99.90;;;;;;6209525;23;20065;-76
2022/07/05 12:25:01;;;;;;;0.20;0.20;;;18.60;99.90;;;;;;6183893;23;20016;-76
2022/07/05 12:27:28;;;;;;;0.15;0.15;;;18.50;99.90;;;;;;6182146;23;20070;-76
2022/07/05 12:29:55;;;;;;;0.10;0.10;;;18.50;99.90;;;;;;6208711;23;20204;-76
2022/07/05 12:32:21;;;;;;;0.20;0.20;;;18.50;99.90;;;;;;6209865;23;20028;-76
2022/07/05 12:34:47;;;;;;;0.10;0.10;;;18.60;99.90;;;;;;6210077;23;20443;-76
2022/07/05 12:37:23;;;;;;;0.20;0.20;;;18.60;99.90;;;;;;6209995;23;20012;-76
2022/07/05 12:39:50;;;;;;;0.17;0.17;;;18.70;99.90;;;;;;6182413;23;20021;-76
2022/07/05 12:42:38;;;;;;;0.15;0.15;;;18.90;99.90;;;;;;6209906;23;20017;-78
2022/07/05 12:45:18;;;;;;;0.15;0.15;;;19.10;99.90;;;;;;6208881;23;20319;-77
2022/07/05 12:47:58;;;;;;;0.10;0.10;;;19.20;99.90;;;;;;6206618;23;20052;-77
2022/07/05 12:50:28;;;;;;;0.10;0.10;;;19.20;99.90;;;;;;6182551;23;20445;-77
2022/07/05 12:58:01;;;;;;;0.20;0.20;;;19.30;99.90;;;;;;6208598;23;20499;-76
2022/07/05 12:59:07;;;;;;;0.10;0.10;;;19.30;99.90;;;;;;6102053;23;20029;-77
2022/07/05 13:01:37;;;;;;;0.20;0.20;;;19.30;99.90;;;;;;6209582;23;20024;-77
2022/07/05 13:04:19;;;;;;;0.20;0.20;;;19.20;99.90;;;;;;6209341;23;20017;-77
2022/07/05 13:06:52;;;;;;;;;;;19.20;99.90;;;;;;6210834;23;20318;-77
2022/07/05 13:09:35;;;;;;;0.20;0.20;;;19.10;99.90;;;;;;6208431;23;19947;-76